Time;durP1;ratioP1;P1;durP2;ratioP2;P2;SDS_P1;SDS_P2;PMS_P1;PMS_P2;Temp;Humidity;BMP_temperature;BMP_pressure;BME280_temperature;BME280_humidity;BME280_pressure;Samples;Min_cycle;Max_cycle;Signal;HPM_P1;HPM_P2
2022/08/02 00:00:01;;;;;;;2.38;1.75;;;;;;;;;;5073939;28;20376;-77
2022/08/02 00:02:27;;;;;;;2.10;1.80;;;;;;;;;;5073904;28;20378;-77
2022/08/02 00:04:53;;;;;;;1.80;1.70;;;;;;;;;;5073723;28;20399;-77
2022/08/02 00:07:19;;;;;;;1.70;1.60;;;;;;;;;;5073762;28;20404;-77
2022/08/02 00:09:45;;;;;;;1.70;1.60;;;;;;;;;;5073638;28;20868;-77
2022/08/02 00:12:11;;;;;;;1.67;1.58;;;;;;;;;;5072391;28;20861;-77
2022/08/02 00:14:37;;;;;;;2.05;1.83;;;;;;;;;;5073621;28;20438;-77
2022/08/02 00:17:04;;;;;;;2.30;1.58;;;;;;;;;;5073478;28;20404;-77
2022/08/02 00:19:30;;;;;;;2.15;1.55;;;;;;;;;;5073502;28;20380;-77
2022/08/02 00:21:56;;;;;;;2.10;1.98;;;;;;;;;;5071627;28;20404;-78
2022/08/02 00:24:22;;;;;;;1.70;1.58;;;;;;;;;;5073304;28;20391;-77
2022/08/02 00:26:48;;;;;;;2.00;1.80;;;;;;;;;;5071913;28;20827;-77
2022/08/02 00:29:14;;;;;;;3.73;1.90;;;;;;;;;;5073206;28;20944;-77
2022/08/02 00:31:40;;;;;;;2.00;1.90;;;;;;;;;;5054156;28;20387;-77
2022/08/02 00:34:06;;;;;;;2.97;2.00;;;;;;;;;;5071861;28;20391;-77
2022/08/02 00:36:32;;;;;;;2.30;1.77;;;;;;;;;;5073024;28;20415;-77
2022/08/02 00:38:58;;;;;;;1.90;1.70;;;;;;;;;;5073169;28;20391;-77
2022/08/02 00:41:24;;;;;;;1.88;1.70;;;;;;;;;;5073494;28;20372;-77
2022/08/02 00:43:51;;;;;;;1.80;1.70;;;;;;;;;;5071689;28;20856;-77
2022/08/02 00:46:17;;;;;;;1.88;1.77;;;;;;;;;;5072887;28;20433;-77
2022/08/02 00:48:43;;;;;;;1.40;1.30;;;;;;;;;;5072909;28;20932;-77
2022/08/02 00:51:10;;;;;;;1.40;1.30;;;;;;;;;;5073047;28;20467;-77
2022/08/02 00:53:37;;;;;;;1.45;1.35;;;;;;;;;;5072541;28;20501;-77
2022/08/02 00:56:03;;;;;;;1.58;1.48;;;;;;;;;;5072780;28;20384;-77
2022/08/02 00:58:29;;;;;;;1.80;1.45;;;;;;;;;;5072688;28;20411;-77
2022/08/02 01:00:56;;;;;;;2.27;1.60;;;;;;;;;;5072742;28;20376;-78
2022/08/02 01:03:23;;;;;;;1.50;1.40;;;;;;;;;;5072746;28;20429;-77
2022/08/02 01:05:49;;;;;;;2.15;1.42;;;;;;;;;;5072507;28;20380;-77
2022/08/02 01:08:15;;;;;;;1.52;1.42;;;;;;;;;;5072609;28;20732;-77
2022/08/02 01:10:41;;;;;;;1.60;1.50;;;;;;;;;;5072401;28;20910;-77
2022/08/02 01:13:07;;;;;;;1.58;1.48;;;;;;;;;;5059168;28;20432;-77
2022/08/02 01:15:35;;;;;;;1.80;1.60;;;;;;;;;;5072837;28;20372;-77
2022/08/02 01:18:04;;;;;;;1.55;1.38;;;;;;;;;;5056400;28;20404;-77
2022/08/02 01:20:57;;;;;;;1.58;1.48;;;;;;;;;;5060816;28;20380;-77
2022/08/02 01:23:41;;;;;;;1.60;1.50;;;;;;;;;;5060036;28;20394;-77
2022/08/02 01:26:26;;;;;;;1.73;1.35;;;;;;;;;;5072354;28;20375;-77
2022/08/02 01:29:01;;;;;;;1.83;1.60;;;;;;;;;;5072431;28;20379;-77
2022/08/02 01:31:35;;;;;;;1.88;1.45;;;;;;;;;;5072342;28;20383;-77
2022/08/02 01:34:09;;;;;;;1.35;1.25;;;;;;;;;;5072540;28;20375;-77
2022/08/02 01:36:43;;;;;;;1.50;1.40;;;;;;;;;;5067087;28;20425;-77
2022/08/02 01:39:13;;;;;;;1.50;1.40;;;;;;;;;;5053946;28;20398;-77
2022/08/02 01:41:39;;;;;;;1.73;1.60;;;;;;;;;;5053139;28;20490;-77
2022/08/02 01:44:06;;;;;;;1.70;1.60;;;;;;;;;;5056997;28;20370;-77
2022/08/02 01:46:33;;;;;;;1.40;1.30;;;;;;;;;;5060844;28;20442;-77
2022/08/02 01:49:01;;;;;;;1.60;1.50;;;;;;;;;;5053793;28;20392;-77
2022/08/02 01:54:14;;;;;;;1.63;1.52;;;;;;;;;;5056127;28;20369;-77
2022/08/02 01:56:41;;;;;;;1.33;1.23;;;;;;;;;;5052882;28;20382;-77
2022/08/02 01:59:08;;;;;;;1.63;1.48;;;;;;;;;;5069900;28;20384;-77
2022/08/02 02:01:36;;;;;;;1.90;1.40;;;;;;;;;;5072265;28;20391;-76
2022/08/02 02:04:02;;;;;;;1.67;1.58;;;;;;;;;;5061112;28;20731;-76
2022/08/02 02:06:28;;;;;;;1.40;1.30;;;;;;;;;;5073515;28;20457;-76
2022/08/02 02:08:55;;;;;;;1.50;1.40;;;;;;;;;;5076206;28;20376;-76
2022/08/02 02:11:22;;;;;;;1.40;1.30;;;;;;;;;;5075812;28;20380;-76
2022/08/02 02:13:48;;;;;;;1.65;1.55;;;;;;;;;;5076055;28;20379;-76
2022/08/02 02:16:15;;;;;;;1.50;1.40;;;;;;;;;;5076007;28;20802;-76
2022/08/02 02:18:42;;;;;;;1.60;1.50;;;;;;;;;;5075983;28;20435;-76
2022/08/02 02:21:09;;;;;;;1.80;1.70;;;;;;;;;;5075818;28;20926;-76
2022/08/02 02:23:35;;;;;;;1.50;1.40;;;;;;;;;;5075742;28;20380;-76
2022/08/02 02:26:03;;;;;;;1.63;1.40;;;;;;;;;;5075699;28;20376;-76
2022/08/02 02:28:30;;;;;;;1.70;1.50;;;;;;;;;;5056311;28;20884;-76
2022/08/02 02:31:07;;;;;;;1.60;1.30;;;;;;;;;;5056697;28;20847;-76
2022/08/02 02:33:34;;;;;;;1.50;1.40;;;;;;;;;;5073455;28;20411;-76
2022/08/02 02:36:02;;;;;;;1.50;1.30;;;;;;;;;;5073707;28;20410;-76
2022/08/02 02:38:30;;;;;;;1.92;1.55;;;;;;;;;;5075244;28;20402;-76
2022/08/02 02:40:57;;;;;;;1.52;1.42;;;;;;;;;;5075619;28;20376;-76
2022/08/02 02:43:23;;;;;;;1.73;1.63;;;;;;;;;;5074426;28;20379;-76
2022/08/02 02:45:50;;;;;;;1.70;1.60;;;;;;;;;;5075167;28;20732;-76
2022/08/02 02:48:17;;;;;;;2.35;1.70;;;;;;;;;;5075313;28;20462;-76
2022/08/02 02:50:43;;;;;;;1.60;1.50;;;;;;;;;;5075182;28;20443;-76
2022/08/02 02:53:11;;;;;;;1.43;1.33;;;;;;;;;;5075184;28;20383;-75
2022/08/02 02:55:37;;;;;;;1.85;1.65;;;;;;;;;;5075033;28;20379;-76
2022/08/02 02:58:03;;;;;;;2.50;1.60;;;;;;;;;;5074952;28;20412;-76
2022/08/02 03:03:14;;;;;;;1.70;1.60;;;;;;;;;;5075264;28;20501;-76
2022/08/02 03:05:40;;;;;;;2.20;1.98;;;;;;;;;;5075199;28;20427;-76
2022/08/02 03:08:06;;;;;;;2.10;1.90;;;;;;;;;;5074912;28;20894;-76
2022/08/02 03:10:33;;;;;;;2.60;1.60;;;;;;;;;;5075147;28;20398;-76
2022/08/02 03:12:59;;;;;;;1.88;1.77;;;;;;;;;;5074898;28;20744;-77
2022/08/02 03:15:26;;;;;;;2.50;1.90;;;;;;;;;;5066495;28;20440;-76
2022/08/02 03:17:52;;;;;;;1.70;1.55;;;;;;;;;;5069083;28;20930;-76
2022/08/02 03:20:19;;;;;;;2.35;1.55;;;;;;;;;;5074760;28;20435;-76
2022/08/02 03:22:46;;;;;;;1.60;1.50;;;;;;;;;;5074666;28;20421;-77
2022/08/02 03:25:12;;;;;;;1.90;1.70;;;;;;;;;;5074570;28;20376;-77
2022/08/02 03:27:39;;;;;;;2.13;1.70;;;;;;;;;;5074567;28;20395;-76
2022/08/02 03:30:06;;;;;;;1.77;1.60;;;;;;;;;;5074482;28;20418;-76
2022/08/02 03:32:33;;;;;;;1.50;1.40;;;;;;;;;;5074654;28;20400;-76
2022/08/02 03:34:59;;;;;;;1.60;1.50;;;;;;;;;;5050645;28;20375;-76
2022/08/02 03:37:26;;;;;;;2.05;1.40;;;;;;;;;;5074191;28;20408;-76
2022/08/02 03:39:53;;;;;;;1.50;1.40;;;;;;;;;;5074393;28;20412;-76
2022/08/02 03:42:20;;;;;;;1.50;1.40;;;;;;;;;;5074221;28;20379;-76
2022/08/02 03:44:47;;;;;;;1.90;1.48;;;;;;;;;;5073047;28;20463;-76
2022/08/02 03:47:13;;;;;;;1.50;1.40;;;;;;;;;;5074225;28;20395;-76
2022/08/02 03:49:39;;;;;;;1.70;1.60;;;;;;;;;;5074505;28;20383;-76
2022/08/02 03:52:06;;;;;;;1.50;1.40;;;;;;;;;;5074060;28;20388;-77
2022/08/02 03:54:32;;;;;;;1.63;1.38;;;;;;;;;;5074183;28;20387;-77
2022/08/02 03:56:58;;;;;;;1.60;1.50;;;;;;;;;;5073787;28;20410;-77
2022/08/02 03:59:24;;;;;;;2.30;1.60;;;;;;;;;;5071719;28;20487;-77
2022/08/02 04:01:49;;;;;;;2.20;1.58;;;;;;;;;;5053990;28;20384;-77
2022/08/02 04:04:15;;;;;;;1.70;1.60;;;;;;;;;;5068526;28;20391;-77
2022/08/02 04:06:41;;;;;;;1.67;1.57;;;;;;;;;;5073993;28;20392;-77
2022/08/02 04:09:08;;;;;;;1.85;1.52;;;;;;;;;;5073846;28;20380;-77
2022/08/02 04:11:34;;;;;;;1.63;1.33;;;;;;;;;;5073712;28;20887;-77
2022/08/02 04:14:01;;;;;;;2.40;1.65;;;;;;;;;;5073739;28;20380;-77
2022/08/02 04:16:47;;;;;;;1.52;1.42;;;;;;;;;;5073632;28;20384;-77
2022/08/02 04:19:32;;;;;;;1.80;1.70;;;;;;;;;;5073531;28;20384;-77
2022/08/02 04:21:59;;;;;;;1.50;1.40;;;;;;;;;;5073694;28;20403;-77
2022/08/02 04:24:31;;;;;;;1.70;1.60;;;;;;;;;;5073507;28;20376;-77
2022/08/02 04:26:58;;;;;;;1.77;1.67;;;;;;;;;;5073322;28;20387;-77
2022/08/02 04:29:25;;;;;;;1.70;1.60;;;;;;;;;;5072725;28;20372;-77
2022/08/02 04:31:52;;;;;;;2.25;1.80;;;;;;;;;;5073282;28;20458;-77
2022/08/02 04:34:18;;;;;;;2.10;1.80;;;;;;;;;;5073556;28;20417;-77
2022/08/02 04:36:44;;;;;;;2.47;2.08;;;;;;;;;;5072883;28;20475;-77
2022/08/02 04:39:10;;;;;;;3.40;2.13;;;;;;;;;;5060293;28;20396;-77
2022/08/02 04:41:37;;;;;;;2.42;1.80;;;;;;;;;;5073434;28;20383;-77
2022/08/02 04:44:03;;;;;;;2.60;1.80;;;;;;;;;;5073032;28;20407;-77
2022/08/02 04:46:29;;;;;;;1.83;1.70;;;;;;;;;;5063885;28;20385;-77
2022/08/02 04:48:55;;;;;;;3.60;1.70;;;;;;;;;;5071305;28;20463;-77
2022/08/02 04:51:21;;;;;;;1.85;1.75;;;;;;;;;;5073028;28;20394;-77
2022/08/02 04:53:47;;;;;;;3.63;1.70;;;;;;;;;;5072540;28;20380;-77
2022/08/02 04:56:13;;;;;;;2.00;1.80;;;;;;;;;;5071134;28;20392;-77
2022/08/02 04:58:39;;;;;;;1.95;1.75;;;;;;;;;;5072693;28;20489;-77
2022/08/02 05:01:05;;;;;;;1.63;1.52;;;;;;;;;;5072653;28;20857;-77
2022/08/02 05:03:31;;;;;;;2.53;1.67;;;;;;;;;;5072755;28;20454;-77
2022/08/02 05:05:59;;;;;;;1.73;1.63;;;;;;;;;;5072624;28;20380;-77
2022/08/02 05:08:25;;;;;;;1.98;1.77;;;;;;;;;;5071536;28;20412;-77
2022/08/02 05:10:51;;;;;;;2.05;1.58;;;;;;;;;;5065528;28;20384;-77
2022/08/02 05:13:17;;;;;;;2.03;1.83;;;;;;;;;;5072566;28;20387;-77
2022/08/02 05:15:43;;;;;;;1.63;1.52;;;;;;;;;;5071125;28;20983;-77
2022/08/02 05:18:11;;;;;;;2.00;1.63;;;;;;;;;;5052056;28;20415;-77
2022/08/02 05:20:37;;;;;;;2.72;1.88;;;;;;;;;;5062449;28;20455;-77
2022/08/02 05:23:03;;;;;;;2.17;1.60;;;;;;;;;;5072441;28;20379;-77
2022/08/02 05:25:29;;;;;;;2.45;1.50;;;;;;;;;;5072224;28;20386;-78
2022/08/02 05:27:55;;;;;;;1.90;1.70;;;;;;;;;;5072323;28;20443;-77
2022/08/02 05:30:21;;;;;;;2.92;1.90;;;;;;;;;;5066476;28;21066;-77
2022/08/02 05:32:51;;;;;;;2.50;1.98;;;;;;;;;;5053402;28;20396;-77
2022/08/02 05:35:17;;;;;;;3.13;1.67;;;;;;;;;;5054564;28;20384;-77
2022/08/02 05:37:43;;;;;;;2.10;1.90;;;;;;;;;;5051961;28;20417;-78
2022/08/02 05:40:10;;;;;;;2.08;1.88;;;;;;;;;;5067998;28;20376;-76
2022/08/02 05:42:36;;;;;;;2.13;1.92;;;;;;;;;;5062804;28;20373;-77
2022/08/02 05:45:02;;;;;;;1.92;1.70;;;;;;;;;;5066392;28;20404;-76
2022/08/02 05:47:28;;;;;;;2.33;2.13;;;;;;;;;;5067542;28;20397;-78
2022/08/02 05:49:54;;;;;;;3.35;2.10;;;;;;;;;;5053180;28;20404;-77
2022/08/02 05:52:21;;;;;;;3.87;2.17;;;;;;;;;;5052000;28;20385;-77
2022/08/02 05:54:56;;;;;;;2.65;2.25;;;;;;;;;;5050626;28;20865;-77
2022/08/02 05:57:41;;;;;;;2.35;2.15;;;;;;;;;;5068975;28;20418;-77
2022/08/02 06:00:08;;;;;;;2.38;2.10;;;;;;;;;;5072047;28;20372;-77
2022/08/02 06:02:34;;;;;;;2.70;2.50;;;;;;;;;;5071948;28;20384;-77
2022/08/02 06:05:04;;;;;;;2.50;2.30;;;;;;;;;;5071981;28;20452;-77
2022/08/02 06:07:30;;;;;;;2.20;2.00;;;;;;;;;;5068289;28;20423;-78
2022/08/02 06:09:58;;;;;;;2.60;2.10;;;;;;;;;;5057840;28;20388;-79
2022/08/02 06:12:27;;;;;;;2.17;1.98;;;;;;;;;;5071988;28;20899;-79
2022/08/02 06:14:54;;;;;;;2.55;2.00;;;;;;;;;;5071789;28;20406;-79
2022/08/02 06:17:20;;;;;;;2.30;1.87;;;;;;;;;;5071838;28;20414;-79
2022/08/02 06:19:46;;;;;;;2.63;2.20;;;;;;;;;;5062277;28;20389;-79
2022/08/02 06:22:16;;;;;;;2.63;2.20;;;;;;;;;;5040189;28;20750;-79
2022/08/02 06:24:43;;;;;;;2.58;2.25;;;;;;;;;;5039510;28;20449;-79
2022/08/02 06:27:11;;;;;;;3.23;2.10;;;;;;;;;;5052021;28;20746;-81
2022/08/02 06:29:38;;;;;;;2.00;1.90;;;;;;;;;;5045578;28;20835;-80
2022/08/02 06:32:05;;;;;;;2.30;2.10;;;;;;;;;;5064452;28;20381;-79
2022/08/02 06:34:35;;;;;;;2.40;2.20;;;;;;;;;;5065290;28;20390;-79
2022/08/02 06:37:14;;;;;;;2.22;2.05;;;;;;;;;;5065829;28;20928;-81
2022/08/02 06:39:43;;;;;;;2.58;2.38;;;;;;;;;;5066444;28;20386;-81
2022/08/02 06:42:12;;;;;;;2.60;2.15;;;;;;;;;;5050264;28;21356;-81
2022/08/02 06:44:38;;;;;;;2.10;2.00;;;;;;;;;;5058624;28;20386;-81
2022/08/02 06:47:04;;;;;;;2.15;2.05;;;;;;;;;;5055241;28;20377;-81
2022/08/02 06:49:30;;;;;;;3.30;2.00;;;;;;;;;;5070638;28;20442;-81
2022/08/02 06:51:56;;;;;;;2.75;2.55;;;;;;;;;;5061865;28;20514;-81
2022/08/02 06:54:22;;;;;;;2.70;2.30;;;;;;;;;;5072018;28;20873;-81
2022/08/02 06:56:49;;;;;;;3.05;2.47;;;;;;;;;;5066598;28;20440;-82
2022/08/02 06:59:15;;;;;;;2.30;2.10;;;;;;;;;;5067454;28;20380;-82
2022/08/02 07:01:41;;;;;;;3.10;2.15;;;;;;;;;;5064524;28;20389;-83
2022/08/02 07:04:07;;;;;;;2.47;2.28;;;;;;;;;;5055301;28;20384;-81
2022/08/02 07:06:33;;;;;;;3.13;2.35;;;;;;;;;;5073231;28;20577;-82
2022/08/02 07:08:59;;;;;;;3.50;2.22;;;;;;;;;;5074195;28;20785;-82
2022/08/02 07:11:25;;;;;;;2.25;2.00;;;;;;;;;;5065574;28;20459;-82
2022/08/02 07:13:51;;;;;;;2.33;2.00;;;;;;;;;;5073903;28;20399;-81
2022/08/02 07:16:17;;;;;;;2.40;2.20;;;;;;;;;;5070097;28;20388;-81
2022/08/02 07:18:43;;;;;;;2.35;2.15;;;;;;;;;;5074630;28;20411;-81
2022/08/02 07:21:09;;;;;;;2.90;2.30;;;;;;;;;;5074585;28;20380;-82
2022/08/02 07:23:35;;;;;;;3.72;2.17;;;;;;;;;;5074635;28;20379;-81
2022/08/02 07:26:01;;;;;;;3.10;2.28;;;;;;;;;;5073544;28;20388;-81
2022/08/02 07:28:27;;;;;;;2.30;2.10;;;;;;;;;;5074816;28;20809;-81
2022/08/02 07:30:53;;;;;;;2.72;2.50;;;;;;;;;;5074372;28;20394;-81
2022/08/02 07:33:19;;;;;;;2.70;2.50;;;;;;;;;;5074507;28;20384;-81
2022/08/02 07:35:45;;;;;;;2.40;2.20;;;;;;;;;;5074425;28;20384;-81
2022/08/02 07:38:11;;;;;;;3.22;2.20;;;;;;;;;;5074130;28;20407;-82
2022/08/02 07:40:37;;;;;;;2.60;2.40;;;;;;;;;;5063998;28;20378;-81
2022/08/02 07:43:03;;;;;;;2.47;2.17;;;;;;;;;;5073157;28;20380;-81
2022/08/02 07:45:29;;;;;;;2.60;2.40;;;;;;;;;;5074579;28;20853;-81
2022/08/02 07:47:55;;;;;;;2.78;2.00;;;;;;;;;;5072249;28;20429;-81
2022/08/02 07:50:21;;;;;;;3.38;2.33;;;;;;;;;;5054312;28;20893;-81
2022/08/02 07:52:48;;;;;;;2.72;2.40;;;;;;;;;;5068171;28;20384;-80
2022/08/02 07:55:15;;;;;;;3.90;2.65;;;;;;;;;;5060173;28;20922;-81
2022/08/02 07:57:41;;;;;;;2.22;2.00;;;;;;;;;;5073885;28;20733;-81
2022/08/02 08:00:08;;;;;;;2.95;2.30;;;;;;;;;;5073931;28;20375;-81
2022/08/02 08:02:34;;;;;;;2.97;2.20;;;;;;;;;;5073268;28;20749;-80
2022/08/02 08:05:01;;;;;;;3.50;2.40;;;;;;;;;;5071907;28;20376;-80
2022/08/02 08:07:27;;;;;;;2.60;2.40;;;;;;;;;;5053823;28;20409;-81
2022/08/02 08:09:53;;;;;;;2.90;2.03;;;;;;;;;;5067651;28;20398;-81
2022/08/02 08:12:20;;;;;;;3.10;2.10;;;;;;;;;;5073723;28;20433;-81
2022/08/02 08:14:46;;;;;;;2.30;2.10;;;;;;;;;;5073761;28;20733;-81
2022/08/02 08:17:12;;;;;;;4.75;1.90;;;;;;;;;;5073324;28;20518;-81
2022/08/02 08:19:38;;;;;;;2.85;2.15;;;;;;;;;;5073983;28;20379;-81
2022/08/02 08:22:04;;;;;;;2.03;1.85;;;;;;;;;;5073491;28;20387;-81
2022/08/02 08:24:30;;;;;;;2.78;1.92;;;;;;;;;;5073487;28;20372;-81
2022/08/02 08:26:56;;;;;;;2.53;1.90;;;;;;;;;;5073474;28;20376;-81
2022/08/02 08:29:23;;;;;;;3.00;1.90;;;;;;;;;;5073371;28;20375;-82
2022/08/02 08:31:49;;;;;;;3.03;1.55;;;;;;;;;;5073426;28;20383;-82
2022/08/02 08:34:16;;;;;;;2.73;1.70;;;;;;;;;;5073323;28;20842;-81
2022/08/02 08:36:42;;;;;;;2.60;1.40;;;;;;;;;;5073451;28;20419;-82
2022/08/02 08:39:09;;;;;;;2.37;1.50;;;;;;;;;;5073541;28;20703;-82
2022/08/02 08:41:35;;;;;;;1.63;1.23;;;;;;;;;;5073317;28;20383;-81
2022/08/02 08:44:01;;;;;;;1.77;1.17;;;;;;;;;;5073188;28;20379;-82
2022/08/02 08:46:32;;;;;;;2.60;1.10;;;;;;;;;;5069724;28;20856;-82
2022/08/02 08:49:03;;;;;;;2.00;1.20;;;;;;;;;;5051489;28;20412;-82
2022/08/02 08:51:36;;;;;;;1.63;1.25;;;;;;;;;;5058999;28;20376;-81
2022/08/02 08:54:03;;;;;;;1.77;1.35;;;;;;;;;;5073274;28;20455;-82
2022/08/02 08:56:33;;;;;;;2.00;1.40;;;;;;;;;;5072747;28;20375;-82
2022/08/02 08:59:00;;;;;;;2.80;1.17;;;;;;;;;;5072727;28;20403;-82
2022/08/02 09:01:26;;;;;;;1.75;1.30;;;;;;;;;;5072699;28;20715;-81
2022/08/02 09:03:52;;;;;;;2.13;1.35;;;;;;;;;;5072756;28;20413;-82
2022/08/02 09:06:18;;;;;;;2.33;1.52;;;;;;;;;;5072692;28;20380;-82
2022/08/02 09:08:44;;;;;;;2.00;1.58;;;;;;;;;;5072605;28;20395;-82
2022/08/02 09:11:14;;;;;;;1.95;1.50;;;;;;;;;;5066533;28;20440;-82
2022/08/02 09:13:48;;;;;;;2.25;1.60;;;;;;;;;;5055636;28;20385;-82
2022/08/02 09:16:14;;;;;;;3.20;1.45;;;;;;;;;;5062558;28;20397;-82
2022/08/02 09:18:46;;;;;;;1.53;1.30;;;;;;;;;;5072399;28;20395;-82
2022/08/02 09:21:13;;;;;;;3.30;1.38;;;;;;;;;;5072888;28;20391;-82
2022/08/02 09:23:40;;;;;;;2.17;1.27;;;;;;;;;;5071464;28;20376;-82
2022/08/02 09:26:10;;;;;;;3.45;1.58;;;;;;;;;;5059573;28;20843;-81
2022/08/02 09:28:37;;;;;;;3.23;1.43;;;;;;;;;;5072404;28;20376;-82
2022/08/02 09:31:05;;;;;;;2.53;1.25;;;;;;;;;;5052354;28;20438;-82
2022/08/02 09:33:31;;;;;;;2.60;1.42;;;;;;;;;;5064612;28;20861;-82
2022/08/02 09:36:07;;;;;;;3.30;1.40;;;;;;;;;;5072214;28;20423;-83
2022/08/02 09:38:34;;;;;;;2.67;1.52;;;;;;;;;;5072275;28;20411;-82
2022/08/02 09:41:00;;;;;;;3.55;1.52;;;;;;;;;;5072275;28;20458;-82
2022/08/02 09:43:40;;;;;;;3.35;1.20;;;;;;;;;;5072642;28;20372;-82
2022/08/02 09:46:17;;;;;;;3.37;1.67;;;;;;;;;;5072351;28;20470;-82
2022/08/02 09:48:46;;;;;;;1.52;1.10;;;;;;;;;;5057815;28;20538;-82
2022/08/02 09:51:12;;;;;;;1.30;1.20;;;;;;;;;;5070131;28;20380;-82
2022/08/02 09:53:38;;;;;;;1.85;1.30;;;;;;;;;;5072089;28;20382;-83
2022/08/02 09:56:05;;;;;;;3.20;1.30;;;;;;;;;;5071042;28;20446;-83
2022/08/02 09:58:31;;;;;;;1.95;1.20;;;;;;;;;;5072055;28;20407;-83
2022/08/02 10:01:00;;;;;;;2.13;1.70;;;;;;;;;;5072117;28;20428;-82
2022/08/02 10:03:26;;;;;;;1.90;1.50;;;;;;;;;;5072098;28;20375;-83
2022/08/02 10:05:54;;;;;;;2.17;1.50;;;;;;;;;;5063245;28;20780;-83
2022/08/02 10:08:20;;;;;;;1.45;1.35;;;;;;;;;;5052871;28;20386;-83
2022/08/02 10:10:46;;;;;;;1.80;1.60;;;;;;;;;;5072048;28;20384;-83
2022/08/02 10:13:12;;;;;;;1.63;1.52;;;;;;;;;;5071977;28;20379;-82
2022/08/02 10:15:38;;;;;;;2.80;1.55;;;;;;;;;;5066845;28;20388;-82
2022/08/02 10:18:05;;;;;;;5.50;1.80;;;;;;;;;;5063102;28;20777;-83
2022/08/02 10:20:32;;;;;;;2.70;1.73;;;;;;;;;;5071833;28;20459;-83
2022/08/02 10:22:59;;;;;;;1.63;1.50;;;;;;;;;;5071893;28;20394;-82
2022/08/02 10:25:26;;;;;;;1.80;1.52;;;;;;;;;;5071923;28;20732;-82
2022/08/02 10:27:52;;;;;;;2.95;1.40;;;;;;;;;;5073741;28;20379;-82
2022/08/02 10:30:18;;;;;;;1.60;1.33;;;;;;;;;;5075729;28;20376;-82
2022/08/02 10:32:45;;;;;;;1.63;1.40;;;;;;;;;;5061540;28;20387;-83
2022/08/02 10:35:13;;;;;;;2.63;1.60;;;;;;;;;;5075603;28;20384;-83
2022/08/02 10:37:40;;;;;;;4.13;1.52;;;;;;;;;;5075190;28;20746;-83
2022/08/02 10:40:21;;;;;;;2.08;1.45;;;;;;;;;;5075559;28;20418;-82
2022/08/02 10:42:48;;;;;;;2.10;1.33;;;;;;;;;;5061467;28;20371;-83
2022/08/02 10:45:15;;;;;;;2.05;1.30;;;;;;;;;;5075727;28;20414;-83
2022/08/02 10:47:58;;;;;;;2.30;1.48;;;;;;;;;;5075316;28;20384;-82
2022/08/02 10:50:43;;;;;;;2.03;1.40;;;;;;;;;;5075250;28;20379;-83
2022/08/02 10:53:24;;;;;;;1.33;1.23;;;;;;;;;;5066791;28;20880;-83
2022/08/02 10:55:50;;;;;;;1.38;1.27;;;;;;;;;;5063249;28;20402;-82
2022/08/02 10:58:18;;;;;;;2.00;1.38;;;;;;;;;;5047168;28;20407;-82
2022/08/02 11:00:44;;;;;;;1.30;1.20;;;;;;;;;;5075190;28;20384;-82
2022/08/02 11:03:28;;;;;;;1.50;1.40;;;;;;;;;;5075069;28;20389;-83
2022/08/02 11:06:02;;;;;;;1.67;1.55;;;;;;;;;;5074986;28;20391;-83
2022/08/02 11:08:28;;;;;;;1.35;1.25;;;;;;;;;;5074871;28;20718;-83
2022/08/02 11:11:01;;;;;;;1.73;1.40;;;;;;;;;;5074985;28;20433;-83
2022/08/02 11:13:28;;;;;;;1.55;1.40;;;;;;;;;;5074912;28;20408;-84
2022/08/02 11:16:04;;;;;;;1.60;1.50;;;;;;;;;;5075005;28;20380;-83
2022/08/02 11:18:48;;;;;;;2.33;1.30;;;;;;;;;;5071827;28;20400;-83
2022/08/02 11:21:21;;;;;;;1.30;1.20;;;;;;;;;;5053248;28;20364;-84
2022/08/02 11:23:47;;;;;;;1.40;1.30;;;;;;;;;;5074690;28;20849;-83
2022/08/02 11:26:28;;;;;;;1.77;1.50;;;;;;;;;;5075080;28;20388;-83
2022/08/02 11:28:54;;;;;;;4.80;1.88;;;;;;;;;;5074493;28;20398;-83
2022/08/02 11:31:20;;;;;;;2.03;1.40;;;;;;;;;;5074829;28;20379;-83
2022/08/02 11:33:48;;;;;;;1.75;1.50;;;;;;;;;;5074541;28;20899;-83
2022/08/02 11:36:14;;;;;;;1.58;1.48;;;;;;;;;;5074338;28;20470;-83
2022/08/02 11:38:40;;;;;;;2.50;1.50;;;;;;;;;;5074488;28;20411;-82
2022/08/02 11:41:06;;;;;;;1.70;1.48;;;;;;;;;;5074388;28;20392;-83
2022/08/02 11:43:33;;;;;;;1.55;1.40;;;;;;;;;;5063773;28;20376;-83
2022/08/02 11:46:03;;;;;;;1.67;1.40;;;;;;;;;;5071062;28;20978;-82
2022/08/02 11:48:39;;;;;;;1.30;1.20;;;;;;;;;;5073294;28;20388;-83
2022/08/02 11:51:06;;;;;;;1.50;1.40;;;;;;;;;;5072972;28;20402;-82
2022/08/02 11:53:42;;;;;;;1.50;1.40;;;;;;;;;;5071866;28;20375;-82
2022/08/02 11:56:08;;;;;;;1.63;1.37;;;;;;;;;;5072663;28;20376;-82
2022/08/02 11:58:34;;;;;;;2.05;1.55;;;;;;;;;;5052873;28;20893;-83
2022/08/02 12:01:01;;;;;;;2.45;1.50;;;;;;;;;;5074150;28;20380;-82
2022/08/02 12:03:27;;;;;;;4.43;1.60;;;;;;;;;;5074487;28;20477;-83
2022/08/02 12:05:53;;;;;;;1.80;1.55;;;;;;;;;;5073808;28;20892;-83
2022/08/02 12:08:23;;;;;;;2.67;1.50;;;;;;;;;;5073817;28;20756;-83
2022/08/02 12:10:49;;;;;;;1.60;1.50;;;;;;;;;;5074639;28;20388;-83
2022/08/02 12:13:16;;;;;;;1.58;1.38;;;;;;;;;;5074117;28;20380;-83
2022/08/02 12:15:44;;;;;;;1.40;1.30;;;;;;;;;;5073588;28;20941;-83
2022/08/02 12:21:03;;;;;;;1.52;1.42;;;;;;;;;;5073927;28;20867;-82
2022/08/02 12:23:29;;;;;;;1.48;1.38;;;;;;;;;;5060055;28;20381;-83
2022/08/02 12:26:05;;;;;;;2.10;1.50;;;;;;;;;;5073139;28;20387;-83
2022/08/02 12:28:37;;;;;;;1.60;1.50;;;;;;;;;;5073719;28;20726;-83
2022/08/02 12:31:04;;;;;;;1.85;1.20;;;;;;;;;;5067480;28;20485;-83
2022/08/02 12:33:44;;;;;;;1.50;1.40;;;;;;;;;;5065483;28;20389;-83
2022/08/02 12:36:17;;;;;;;1.40;1.30;;;;;;;;;;5073341;28;20399;-83
2022/08/02 12:38:59;;;;;;;2.03;1.50;;;;;;;;;;5073255;28;20415;-82
2022/08/02 12:41:26;;;;;;;1.58;1.40;;;;;;;;;;5073208;28;20368;-82
2022/08/02 12:43:52;;;;;;;1.50;1.40;;;;;;;;;;5073148;28;20422;-82
2022/08/02 12:46:20;;;;;;;1.73;1.63;;;;;;;;;;5072994;28;20395;-83
2022/08/02 12:48:46;;;;;;;2.92;1.75;;;;;;;;;;5056263;28;20776;-83
2022/08/02 12:51:22;;;;;;;1.60;1.50;;;;;;;;;;5068543;28;20463;-82
2022/08/02 12:53:48;;;;;;;2.75;1.50;;;;;;;;;;5072845;28;20788;-82
2022/08/02 12:56:30;;;;;;;1.52;1.20;;;;;;;;;;5072848;28;20455;-82
2022/08/02 12:58:56;;;;;;;1.48;1.30;;;;;;;;;;5072775;28;20414;-83
2022/08/02 13:01:23;;;;;;;1.40;1.30;;;;;;;;;;5073083;28;20372;-83
2022/08/02 13:03:49;;;;;;;1.90;1.50;;;;;;;;;;5063175;28;20382;-83
2022/08/02 13:06:16;;;;;;;1.63;1.48;;;;;;;;;;5064613;28;20384;-82
2022/08/02 13:08:42;;;;;;;1.73;1.30;;;;;;;;;;5072711;28;20470;-82
2022/08/02 13:11:08;;;;;;;1.60;1.50;;;;;;;;;;5072982;28;20387;-82
2022/08/02 13:13:34;;;;;;;2.13;1.63;;;;;;;;;;5072612;28;20379;-82
2022/08/02 13:16:00;;;;;;;2.00;1.45;;;;;;;;;;5072562;28;20450;-83
2022/08/02 13:18:26;;;;;;;1.33;1.23;;;;;;;;;;5072507;28;20403;-83
2022/08/02 13:20:52;;;;;;;1.60;1.50;;;;;;;;;;5067006;28;20459;-83
2022/08/02 13:23:18;;;;;;;2.35;1.30;;;;;;;;;;5052589;28;20420;-83
2022/08/02 13:25:44;;;;;;;1.58;1.48;;;;;;;;;;5070646;28;20387;-83
2022/08/02 13:28:10;;;;;;;1.40;1.20;;;;;;;;;;5072589;28;20384;-82
2022/08/02 13:30:37;;;;;;;1.40;1.30;;;;;;;;;;5071104;28;20891;-83
2022/08/02 13:33:03;;;;;;;1.50;1.40;;;;;;;;;;5072463;28;20380;-83
2022/08/02 13:35:29;;;;;;;1.50;1.20;;;;;;;;;;5072381;28;20380;-82
2022/08/02 13:37:55;;;;;;;1.48;1.38;;;;;;;;;;5072107;28;20422;-82
2022/08/02 13:40:22;;;;;;;1.65;1.20;;;;;;;;;;5072339;28;20387;-82
2022/08/02 13:42:48;;;;;;;2.00;1.20;;;;;;;;;;5067600;28;20423;-82
2022/08/02 13:45:14;;;;;;;2.10;1.40;;;;;;;;;;5062952;28;20379;-82
2022/08/02 13:47:41;;;;;;;1.40;1.30;;;;;;;;;;5070847;28;20748;-82
2022/08/02 13:50:07;;;;;;;3.70;1.65;;;;;;;;;;5063306;28;20878;-82
2022/08/02 13:52:33;;;;;;;1.95;1.40;;;;;;;;;;5061673;28;20436;-82
2022/08/02 13:54:59;;;;;;;2.13;1.48;;;;;;;;;;5064689;28;20465;-82
2022/08/02 13:57:25;;;;;;;1.52;1.42;;;;;;;;;;5058111;28;20797;-82
2022/08/02 13:59:51;;;;;;;1.48;1.38;;;;;;;;;;5072084;28;20376;-82
2022/08/02 14:02:17;;;;;;;1.98;1.30;;;;;;;;;;5074692;28;20451;-83
2022/08/02 14:04:43;;;;;;;1.50;1.40;;;;;;;;;;5076224;28;20750;-83
2022/08/02 14:07:09;;;;;;;2.00;1.38;;;;;;;;;;5070910;28;20415;-82
2022/08/02 14:09:35;;;;;;;1.83;1.40;;;;;;;;;;5067652;28;20372;-83
2022/08/02 14:12:02;;;;;;;1.65;1.30;;;;;;;;;;5076068;28;20852;-82
2022/08/02 14:14:28;;;;;;;1.60;1.50;;;;;;;;;;5076283;28;20375;-82
2022/08/02 14:16:54;;;;;;;1.60;1.50;;;;;;;;;;5061801;28;20401;-82
2022/08/02 14:19:23;;;;;;;1.73;1.40;;;;;;;;;;5076016;28;20478;-82
2022/08/02 14:21:50;;;;;;;1.67;1.30;;;;;;;;;;5075948;28;20442;-82
2022/08/02 14:24:16;;;;;;;2.15;1.40;;;;;;;;;;5074655;28;20379;-82
2022/08/02 14:26:43;;;;;;;2.72;1.40;;;;;;;;;;5075861;28;20433;-82
2022/08/02 14:29:09;;;;;;;1.52;1.23;;;;;;;;;;5075756;28;20379;-83
2022/08/02 14:31:35;;;;;;;1.35;1.25;;;;;;;;;;5075810;28;20421;-82
2022/08/02 14:34:01;;;;;;;2.03;1.85;;;;;;;;;;5075977;28;20371;-82
2022/08/02 14:36:27;;;;;;;2.88;1.58;;;;;;;;;;5075470;28;20385;-82
2022/08/02 14:38:53;;;;;;;1.65;1.55;;;;;;;;;;5075530;28;20493;-82
2022/08/02 14:41:19;;;;;;;1.70;1.40;;;;;;;;;;5065597;28;20739;-82
2022/08/02 14:44:03;;;;;;;5.75;1.55;;;;;;;;;;5068229;28;20836;-82
2022/08/02 14:46:33;;;;;;;2.20;1.50;;;;;;;;;;5049547;28;20448;-82
2022/08/02 14:49:02;;;;;;;2.20;1.45;;;;;;;;;;5075421;28;20483;-82
2022/08/02 14:51:32;;;;;;;1.40;1.30;;;;;;;;;;5075531;28;20587;-82
2022/08/02 14:53:58;;;;;;;2.55;1.70;;;;;;;;;;5075370;28;20384;-82